Quantico Naval Hospital, Virginia
Current Conditions -  °F | °C
As of 11:56 PM on Saturday 25 Oct 2014 (Local Time) from KNYG Reporting Station
Clear Clear  
Wind Chill: 54°   Ceiling: Unl
Heat Index: 54°   Visibility: 10mi
Dew Point: 47°   Wind: 5mph
Humidity: 77%   Direction: 290°WNW
Pressure: 29.74"   Gusts: NA
Location:  38.58°N, 77.4441°W
Report Text: KNYG 260356Z AUTO 29004KT 10SM CLR 12/08 A2974 RMK AO2 SLP071 T01220083 $
Loading
Personal Weather Stations






























Interactive Weather Map
Tropical Storm Tracking
New forecast layout! Learn more

10-Day Weather Forecast

Advertisements
Track Severe Weather on mobile